LFTW/FNI METAR and TAF weather

Enter ICAO airport designator
Station Type Date Time Source
LFTW METAR 2020/12/05 05:00 UTC NOAA

LFTW 050500Z AUTO 36004KT 3000 R18/1000U BR NSC M01/M01 Q0996 NOSIG


Station Type Date Time Source
LFTW Decoded METAR 2020/12/05 05:00 UTC NOAA

Nimes / Garons, France (LFTW) 43-45N 004-25E 96M
Dec 05, 2020 - 12:00 AM EST / 2020.12.05 0500 UTC
Wind: from the N (360 degrees) at 5 MPH (4 KT):0
Visibility: 1 mile(s):0
Weather: mist
Temperature: 30 F (-1 C)
Windchill: 24 F (-4 C):1
Dew Point: 30 F (-1 C)
Relative Humidity: 100%
Pressure (altimeter): 29.41 in. Hg (0996 hPa)
ob: LFTW 050500Z AUTO 36004KT 3000 R18/1000U BR NSC M01/M01 Q0996 NOSIG
cycle: 5

Station Type Date Time Source
LFTW TAF 2020/12/05 04:58 UTC NOAA

TAF
AMD LFTW 050453Z 0504/0603 VRB05KT CAVOK PROB40
TEMPO 0504/0509 4000 BR
TEMPO 0504/0507 0600 FZFG
TEMPO 0509/0515 34008KT

Example: see airport list